English Harbour East, Canada
Current Conditions -  °F | °C
As of 11:00 PM on Friday 21 Nov 2014 (Local Time) from CYQX Reporting Station
Overcast Overcast  
Wind Chill: -10°   Ceiling: 2500
Heat Index: -3°   Visibility: 15mi
Dew Point: -5°   Wind: 15mph
Humidity: 86%   Direction: 250°WSW
Pressure: 29.39"   Gusts: NA
Location:  47.65°N, 54.93°W
Report Text: CYQX 220200Z 25013KT 15SM SCT014 BKN025 BKN089 OVC100 M03/M05 A2939 RMK SC4SC2AC1AC1 SLP958
Loading
Personal Weather Stations






























Interactive Weather Map New forecast layout! Learn more

10-Day Weather Forecast

Advertisements
Track Severe Weather on mobile